Racecast

Bryan Watkins

East End Lightning T&F Youth Development (VA) · 12 · Compare head to head

Athlete rating 89.4
Best race 97.4 TF
Races 87
Seasons 3 2024 — 2026
Speed rating — all races

Track & Field

TF speed rating

2026 TF 88.8

East End Lightning T&F Youth Development (VA) · Grade 12

Date Meet Event Result Place Rating Difficulty PR/SR Flags
2026-06-13 AAU Virginia District Qualifier - South 800m 2:34.98 4th · 1st on team 97.4 -0.033 ★R RSR
2026-06-13 AAU Virginia District Qualifier - South 400m 1:03.31 9th · 1st on team -0.033 ★PR SR
2026-06-13 AAU Virginia District Qualifier - South 200m 27.49 14th · 1st on team -0.033 ★PR SR
2026-05-30 Va Beach Flames Invite 100mh 19.34 5th · 1st on team -0.023 ★PR SR
2026-05-30 Va Beach Flames Invite 400m 1:05.44 21st · 1st on team -0.023
2026-05-30 Va Beach Flames Invite 200mh 31.72 8th · 1st on team -0.023 ★PR SR
2026-05-16 2026 Technique Relays hj DNS -0.035
2026-05-16 2026 Technique Relays 800m 2:34.77 2nd · 1st on team 97.3 -0.035 ★PR R SR RSR
2026-05-16 2026 Technique Relays 400m 1:04.3 14th · 1st on team -0.035 PR SR
2026-05-09 VA "Legends" T & F Youth Invite 100m 13.98 29th · 1st on team -0.033 ★PR SR
2026-05-09 VA "Legends" T & F Youth Invite 100mh 19.74 3rd · 1st on team -0.033 PR SR
2026-05-09 VA "Legends" T & F Youth Invite 200mh 31.85 5th · 1st on team -0.033 PR SR
2026-03-06 AAU Indoor National Championship 60mh 11.42 12th · 1st on team -0.036 ★PR SR
2026-03-06 AAU Indoor National Championship 400m 1:05.02 39th · 1st on team -0.036 PR SR
2026-03-06 AAU Indoor National Championship 800m 2:36.95 23rd · 1st on team 96.3 -0.036 PR R SR RSR
2026-02-28 BWSP Queens and Kings Championships 55mh 10.38 5th · 1st on team -0.024 ★PR SR
2026-02-28 BWSP Queens and Kings Championships 800m 2:55.39 5th · 1st on team 86.8 -0.024
2026-02-28 BWSP Queens and Kings Championships 400m 1:06.77 12th · 1st on team -0.024 PR SR
2026-02-22 3rd Annual HRH Winter Storm Classic 200m 29.71 20th · 1st on team -0.024 PR SR
2026-02-22 3rd Annual HRH Winter Storm Classic 55mh 10.72 6th · 1st on team -0.024 PR SR
2026-02-22 3rd Annual HRH Winter Storm Classic 400m 1:07.93 16th · 1st on team -0.024 SR
2026-01-31 BWSP Queens and Kings - Meet 3 55mh 11.42 4th · 1st on team -0.024 PR SR
2026-01-31 BWSP Queens and Kings - Meet 3 200m 29.78 13th · 1st on team -0.024
2026-01-31 BWSP Queens and Kings - Meet 3 400m 1:09.76 15th · 1st on team -0.024
2026-01-17 BWSP Queens and Kings - Meet 2 400m 1:10.42 17th · 1st on team -0.024
2026-01-17 BWSP Queens and Kings - Meet 2 800m 2:53.12 5th · 1st on team 88.0 -0.024
2026-01-17 BWSP Queens and Kings - Meet 2 55mh 11.48 4th · 1st on team -0.024 PR SR
2026-01-11 Lighting Track Classic 60mh 12.03 7th · 1st on team -0.036 PR SR
2026-01-11 Lighting Track Classic 800m 2:50.69 6th · 1st on team 88.5 -0.036 SR RSR
2026-01-11 Lighting Track Classic 60mh 13.17 12th · 2nd on team -0.036
2026-01-11 Lighting Track Classic 400m 1:09.46 17th · 1st on team -0.036
2026-01-11 Lighting Track Classic 200m 30.34 27th · 1st on team -0.036
2026-01-03 BWSP Queens and Kings - Meet 1 800m 3:08.07 9th · 1st on team 81.0 -0.024
2026-01-03 BWSP Queens and Kings - Meet 1 400m 1:12.48 23rd · 1st on team -0.024
2026-01-03 BWSP Queens and Kings - Meet 1 55mh 12.09 5th · 1st on team -0.024 PR SR
2025-12-20 2025 Howard White Holiday Track Classic 200m 29.78 8th · 1st on team -0.024 PR SR
2025-12-20 2025 Howard White Holiday Track Classic 400m 1:10.34 15th · 1st on team -0.024
2025-12-20 2025 Howard White Holiday Track Classic 800m 3:19.47 8th · 1st on team 76.3 -0.024
2025-12-14 VB Oceanfront Invitational 400m 1:09.32 1st · 1st on team -0.036 SR
2025-12-14 VB Oceanfront Invitational 200m 31.76 2nd · 1st on team -0.036 PR SR
2025-12-14 VB Oceanfront Invitational 800m 2:53.32 3rd · 1st on team 87.1 -0.036 SR RSR

2025 TF 82.1

East End Lightning T&F Youth Development (VA) · Grade 11

Date Meet Event Result Place Rating Difficulty PR/SR Flags
2025-07-12 Cannonball Cooper Invite discus DNS -0.027
2025-06-25 AAU Track & Field Region 5 Qualifier discus 43-11 -0.034
2025-06-25 AAU Track & Field Region 5 Qualifier 400m 1:06.8 10th · 1st on team -0.034 PR SR
2025-06-25 AAU Track & Field Region 5 Qualifier 800m 2:49.66 10th · 1st on team 88.8 -0.034 PR R SR RSR
2025-06-14 AAU Virginia District Qualifier (Southern) discus 46-02 -0.041
2025-06-14 AAU Virginia District Qualifier (Southern) 400m 1:12.01 9th · 1st on team -0.041
2025-06-14 AAU Virginia District Qualifier (Southern) 800m 2:52.46 7th · 1st on team 86.8 -0.041 PR R SR RSR
2025-05-31 Va Beach Flames Invite discus DNS -0.023
2025-05-31 Va Beach Flames Invite 400m 1:15.21 29th · 1st on team -0.023
2025-05-31 Va Beach Flames Invite 1500m 6:09.81 6th · 2nd on team 85.8 -0.023
2025-05-25 HR Hurricanes CAT 5 Invite discus 32' 7" -0.035
2025-05-25 HR Hurricanes CAT 5 Invite 1500m 6:00.66 8th · 2nd on team 86.4 -0.035 ★PR R SR RSR
2025-05-25 HR Hurricanes CAT 5 Invite 800m 3:07.61 6th · 1st on team 80.1 -0.035
2025-05-10 Legends Invitational hosted by Eastend Lightning 1500m 6:27.33 12th · 2nd on team 81.1 -0.030
2025-05-10 Legends Invitational hosted by Eastend Lightning 800m 3:13.4 13th · 2nd on team 78.3 -0.030
2025-05-04 Queen Harrison Youth Invite 400m 1:10.42 9th · 1st on team -0.033 PR SR
2025-05-04 Queen Harrison Youth Invite 1500m 6:05.52 6th · 2nd on team 85.6 -0.033 PR SR RSR
2025-05-04 Queen Harrison Youth Invite 800m 3:03.93 7th · 1st on team 82.0 -0.033
2025-04-27 TRACK 757 Classic 400m 1:19.21 18th · 1st on team -0.029
2025-04-27 TRACK 757 Classic 800m 3:12.86 8th · 2nd on team 78.7 -0.029
2025-04-27 TRACK 757 Classic 1500m 6:27.73 5th · 2nd on team 81.2 -0.029
2025-03-07 AAU Indoor National Championships 800m 2:56.79 24th · 1st on team 85.4 -0.036 PR SR RSR
2025-03-07 AAU Indoor National Championships 400m 1:13.69 42nd · 1st on team -0.036 PR SR
2025-03-07 AAU Indoor National Championships 1500m 6:28.82 17th · 1st on team 80.4 -0.036
2025-02-22 BWSP Queens and Kings Championships 800m 3:17.65 7th · 1st on team 77.8 -0.014
2025-02-22 BWSP Queens and Kings Championships 1500m 6:34.73 4th · 1st on team 80.8 -0.014
2025-02-22 BWSP Queens and Kings Championships 400m 1:13.96 15th · 2nd on team -0.014 PR SR
2025-02-01 BWSP Queens and Kings - Meet 3 800m 3:14.24 5th · 3rd on team 79.2 -0.014
2025-02-01 BWSP Queens and Kings - Meet 3 1500m 6:18.99 4th · 3rd on team 84.2 -0.014 SR RSR
2025-02-01 BWSP Queens and Kings - Meet 3 400m 1:15.29 13th · 4th on team -0.014 PR SR
2025-01-18 BWSP Queens and Kings - Meet 2 400m 1:16.72 16th · 2nd on team -0.014 PR SR
2025-01-18 BWSP Queens and Kings - Meet 2 800m 3:12.93 7th · 3rd on team 79.7 -0.014 SR
2025-01-18 BWSP Queens and Kings - Meet 2 1500m 6:24.46 5th · 3rd on team 83.0 -0.014 SR RSR
2025-01-04 BWSP Queens and Kings - Meet 1 hj NH -0.024
2025-01-04 BWSP Queens and Kings - Meet 1 1500m 6:26.89 1st · 1st on team 81.6 -0.024 SR RSR
2025-01-04 BWSP Queens and Kings - Meet 1 800m 3:18.65 5th · 2nd on team 76.6 -0.024 SR
2024-08-03 AAU Junior Olympic Games hj 1.15m -0.039

2024 TF 80.5

Eastend Lightning Track & Fiel (VA) · Grade 10

Date Meet Event Result Place Rating Difficulty PR/SR Flags
2024-06-29 AAU Region 05 National Qualifier hj 3-06.00 -0.034
2024-06-09 AAU Virginia North District Qualifier hj 3-06.00 -0.007
2024-06-09 AAU Virginia North District Qualifier 1500m 6:15.06 6th · 1st on team 85.7 -0.007 PR R SR RSR
2024-06-09 AAU Virginia North District Qualifier 800m 3:07.71 8th · 1st on team 82.7 -0.007 PR SR
2024-05-11 2024 EE Lightning "Legends" Invite hj NH -0.043
2024-05-11 2024 EE Lightning "Legends" Invite 800m 3:09.57 9th · 2nd on team 78.8 -0.043 PR SR
2024-05-11 2024 EE Lightning "Legends" Invite 1500m 6:26.68 11th · 3rd on team 80.0 -0.043 PR SR
2024-05-05 Queen Harrison Invite 1500m 6:30.55 3rd · 1st on team 80.1 -0.033 PR R SR RSR
2024-05-05 Queen Harrison Invite 800m 3:19.28 6th · 2nd on team 75.8 -0.033 PR SR